createdAt,value
2018-01-27T00:00:13.551Z,9.90
2018-01-27T00:02:41.828Z,9.40
2018-01-27T00:05:10.157Z,8.57
2018-01-27T00:07:38.411Z,9.10
2018-01-27T00:10:06.712Z,9.70
2018-01-27T00:12:34.979Z,8.37
2018-01-27T00:15:03.313Z,9.37
2018-01-27T00:17:31.654Z,10.13
2018-01-27T00:20:00.173Z,10.47
2018-01-27T00:22:28.470Z,10.03
2018-01-27T00:24:56.778Z,10.70
2018-01-27T00:27:25.095Z,9.73
2018-01-27T00:29:53.383Z,10.43
2018-01-27T00:32:21.679Z,9.60
2018-01-27T00:34:49.951Z,9.10
2018-01-27T00:37:18.260Z,9.68
2018-01-27T00:39:46.521Z,8.83
2018-01-27T00:42:14.780Z,7.30
2018-01-27T00:44:43.058Z,7.63
2018-01-27T00:47:11.336Z,6.62
2018-01-27T00:49:40.542Z,6.50
2018-01-27T00:52:08.808Z,6.60
2018-01-27T00:54:37.115Z,6.70
2018-01-27T00:57:06.234Z,5.93
2018-01-27T00:59:34.555Z,6.87
2018-01-27T01:02:02.832Z,6.60
2018-01-27T01:04:31.219Z,6.50
2018-01-27T01:06:59.494Z,6.37
2018-01-27T01:09:27.783Z,7.35
2018-01-27T01:11:56.076Z,6.57
2018-01-27T01:14:24.339Z,6.43
2018-01-27T01:16:52.646Z,6.07
2018-01-27T01:19:20.948Z,7.10
2018-01-27T01:21:49.266Z,6.20
2018-01-27T01:24:17.531Z,7.55
2018-01-27T01:26:46.423Z,7.33
2018-01-27T01:29:14.736Z,7.00
2018-01-27T01:31:43.020Z,10.87
2018-01-27T01:34:11.291Z,9.40
2018-01-27T01:36:39.606Z,9.30
2018-01-27T01:39:07.913Z,8.80
2018-01-27T01:41:36.181Z,8.43
2018-01-27T01:44:10.470Z,10.27
2018-01-27T01:46:38.739Z,7.93
2018-01-27T01:49:19.040Z,8.83
2018-01-27T01:51:47.268Z,7.20
2018-01-27T01:54:15.575Z,6.22
2018-01-27T01:56:43.868Z,6.17
2018-01-27T01:59:12.149Z,6.60
2018-01-27T02:01:40.427Z,6.80
2018-01-27T02:04:08.703Z,7.18
2018-01-27T02:06:36.990Z,6.37
2018-01-27T02:09:05.266Z,6.90
2018-01-27T02:11:33.580Z,6.27
2018-01-27T02:14:01.855Z,7.23
2018-01-27T02:16:30.164Z,6.63
2018-01-27T02:18:58.464Z,7.63
2018-01-27T02:21:26.778Z,7.40
2018-01-27T02:23:55.049Z,7.67
2018-01-27T02:26:23.366Z,7.37
2018-01-27T02:28:52.871Z,6.70
2018-01-27T02:31:21.157Z,7.53
2018-01-27T02:33:49.496Z,7.20
2018-01-27T02:36:17.751Z,7.03
2018-01-27T02:38:46.051Z,8.13
2018-01-27T02:41:14.328Z,7.82
2018-01-27T02:43:42.670Z,7.70
2018-01-27T02:46:11.030Z,8.03
2018-01-27T02:48:39.353Z,7.37
2018-01-27T02:51:07.618Z,7.70
2018-01-27T02:53:35.929Z,8.00
2018-01-27T02:56:04.882Z,7.47
2018-01-27T02:58:33.151Z,8.17
2018-01-27T03:01:01.448Z,7.67
2018-01-27T03:03:29.735Z,8.40
2018-01-27T03:05:58.036Z,10.70
2018-01-27T03:08:26.319Z,8.80
2018-01-27T03:10:54.651Z,8.83
2018-01-27T03:13:22.922Z,8.30
2018-01-27T03:15:51.218Z,10.07
2018-01-27T03:18:19.523Z,8.27
2018-01-27T03:20:47.815Z,9.63
2018-01-27T03:23:16.102Z,8.60
2018-01-27T03:25:44.378Z,8.93
2018-01-27T03:28:12.994Z,8.80
2018-01-27T03:30:41.271Z,9.00
2018-01-27T03:33:09.611Z,8.68
2018-01-27T03:35:37.852Z,8.20
2018-01-27T03:38:06.154Z,7.60
2018-01-27T03:40:34.423Z,7.80
2018-01-27T03:43:02.731Z,8.00
2018-01-27T03:45:31.004Z,8.90
2018-01-27T03:47:59.321Z,7.80
2018-01-27T03:50:27.610Z,8.75
2018-01-27T03:52:55.898Z,8.30
2018-01-27T03:55:24.162Z,8.60
2018-01-27T03:57:52.527Z,8.10
2018-01-27T04:00:20.815Z,8.20
2018-01-27T04:02:49.079Z,8.30
2018-01-27T04:05:17.374Z,8.88
2018-01-27T04:07:45.647Z,10.03
2018-01-27T04:10:13.934Z,9.50
2018-01-27T04:12:42.196Z,10.17
2018-01-27T04:15:10.492Z,10.30
2018-01-27T04:17:38.770Z,11.30
2018-01-27T04:20:07.055Z,11.20
2018-01-27T04:22:35.347Z,13.30
2018-01-27T04:25:03.619Z,11.97
2018-01-27T04:27:31.931Z,11.23
2018-01-27T04:30:00.752Z,11.03
2018-01-27T04:32:29.044Z,10.80
2018-01-27T04:34:57.338Z,10.50
2018-01-27T04:37:25.618Z,10.73
2018-01-27T04:39:53.903Z,10.13
2018-01-27T04:42:23.098Z,11.27
2018-01-27T04:44:51.398Z,9.90
2018-01-27T04:47:19.687Z,11.00
2018-01-27T04:49:48.003Z,10.77
2018-01-27T04:52:16.284Z,9.87
2018-01-27T04:54:44.589Z,10.00
2018-01-27T04:57:12.850Z,10.13
2018-01-27T04:59:41.173Z,10.70
2018-01-27T05:02:09.483Z,10.10
2018-01-27T05:04:37.796Z,11.27
2018-01-27T05:07:06.104Z,9.73
2018-01-27T05:09:34.409Z,10.60
2018-01-27T05:12:02.706Z,10.67
2018-01-27T05:14:30.987Z,10.77
2018-01-27T05:16:59.308Z,11.30
2018-01-27T05:19:27.630Z,10.90
2018-01-27T05:21:55.907Z,11.67
2018-01-27T05:24:24.203Z,10.67
2018-01-27T05:26:52.471Z,12.27
2018-01-27T05:29:20.804Z,12.07
2018-01-27T05:31:49.119Z,14.07
2018-01-27T05:34:17.442Z,12.98
2018-01-27T05:36:45.739Z,12.00
2018-01-27T05:39:14.041Z,11.70
2018-01-27T05:41:42.350Z,13.90
2018-01-27T05:44:10.622Z,13.60
2018-01-27T05:46:38.947Z,13.23
2018-01-27T05:49:08.144Z,17.00
2018-01-27T05:51:36.450Z,14.10
2018-01-27T05:54:04.733Z,16.90
2018-01-27T05:56:33.039Z,15.83
2018-01-27T05:59:01.320Z,12.60
2018-01-27T06:01:29.624Z,14.13
2018-01-27T06:03:57.911Z,14.85
2018-01-27T06:06:26.223Z,12.30
2018-01-27T06:08:54.508Z,11.80
2018-01-27T06:11:22.801Z,10.40
2018-01-27T06:13:51.095Z,10.30
2018-01-27T06:16:19.425Z,10.97
2018-01-27T06:18:47.695Z,10.40
2018-01-27T06:21:16.011Z,10.50
2018-01-27T06:23:44.283Z,10.23
2018-01-27T06:26:12.554Z,9.38
2018-01-27T06:28:40.839Z,9.93
2018-01-27T06:31:09.110Z,9.73
2018-01-27T06:33:37.461Z,8.77
2018-01-27T06:36:05.761Z,8.60
2018-01-27T06:38:34.126Z,8.00
2018-01-27T06:41:02.395Z,7.37
2018-01-27T06:43:30.727Z,8.77
2018-01-27T06:45:59.059Z,8.13
2018-01-27T06:48:27.343Z,8.30
2018-01-27T06:50:56.208Z,8.47
2018-01-27T06:53:24.497Z,8.10
2018-01-27T06:55:52.840Z,8.87
2018-01-27T06:58:21.054Z,8.00
2018-01-27T07:00:49.403Z,9.53
2018-01-27T07:03:17.694Z,9.27
2018-01-27T07:05:46.004Z,9.47
2018-01-27T07:08:14.273Z,9.38
2018-01-27T07:10:42.582Z,9.13
2018-01-27T07:13:10.875Z,10.33
2018-01-27T07:15:39.172Z,8.77
2018-01-27T07:18:07.505Z,8.82
2018-01-27T07:20:35.775Z,10.90
2018-01-27T07:23:05.118Z,10.50
2018-01-27T07:25:33.368Z,9.87
2018-01-27T07:28:01.684Z,9.37
2018-01-27T07:30:29.962Z,9.40
2018-01-27T07:32:58.291Z,9.05
2018-01-27T07:35:26.618Z,8.17
2018-01-27T07:37:54.905Z,8.23
2018-01-27T07:40:23.211Z,8.70
2018-01-27T07:42:51.561Z,8.60
2018-01-27T07:45:19.835Z,8.25
2018-01-27T07:47:48.136Z,9.10
2018-01-27T07:50:16.438Z,10.70
2018-01-27T07:52:44.767Z,9.60
2018-01-27T07:55:13.091Z,10.95
2018-01-27T07:57:41.422Z,9.32
2018-01-27T08:00:09.725Z,11.60
2018-01-27T08:02:38.017Z,7.80
2018-01-27T08:05:06.284Z,8.27
2018-01-27T08:07:34.608Z,8.30
2018-01-27T08:10:02.884Z,9.80
2018-01-27T08:12:31.193Z,8.33
2018-01-27T08:14:59.522Z,8.40
2018-01-27T08:17:27.770Z,7.80
2018-01-27T08:19:56.144Z,9.17
2018-01-27T08:22:24.380Z,8.53
2018-01-27T08:24:52.676Z,8.43
2018-01-27T08:27:21.178Z,9.03
2018-01-27T08:29:49.919Z,8.10
2018-01-27T08:32:18.267Z,8.90
2018-01-27T08:34:46.618Z,7.50
2018-01-27T08:37:15.859Z,8.50
2018-01-27T08:39:44.135Z,9.37
2018-01-27T08:42:12.471Z,8.27
2018-01-27T08:44:40.703Z,8.07
2018-01-27T08:47:09.018Z,8.40
2018-01-27T08:49:37.290Z,7.90
2018-01-27T08:52:05.628Z,8.90
2018-01-27T08:54:33.913Z,8.80
2018-01-27T08:57:02.222Z,7.57
2018-01-27T08:59:30.530Z,8.80
2018-01-27T09:01:58.861Z,7.60
2018-01-27T09:04:27.155Z,7.90
2018-01-27T09:06:55.430Z,7.87
2018-01-27T09:09:24.290Z,8.20
2018-01-27T09:11:52.692Z,10.40
2018-01-27T09:14:21.012Z,8.30
2018-01-27T09:16:49.476Z,7.80
2018-01-27T09:19:17.679Z,8.17
2018-01-27T09:21:45.987Z,9.97
2018-01-27T09:24:14.255Z,9.93
2018-01-27T09:26:42.556Z,8.50
2018-01-27T09:29:10.872Z,8.43
2018-01-27T09:31:39.163Z,7.10
2018-01-27T09:34:07.584Z,7.30
2018-01-27T09:36:35.913Z,8.20
2018-01-27T09:39:04.210Z,7.67
2018-01-27T09:41:33.458Z,7.60
2018-01-27T09:44:01.771Z,7.65
2018-01-27T09:46:30.081Z,8.23
2018-01-27T09:48:59.393Z,7.23
2018-01-27T09:51:27.712Z,8.97
2018-01-27T09:53:56.005Z,8.13
2018-01-27T09:56:24.270Z,9.10
2018-01-27T09:58:52.559Z,9.93
2018-01-27T10:01:20.871Z,10.90
2018-01-27T10:03:49.146Z,10.33
2018-01-27T10:06:17.497Z,9.83
2018-01-27T10:08:45.763Z,10.07
2018-01-27T10:11:14.061Z,11.47
2018-01-27T10:13:42.378Z,9.60
2018-01-27T10:16:10.666Z,10.35
2018-01-27T10:18:38.975Z,10.50
2018-01-27T10:21:07.318Z,10.83
2018-01-27T10:23:35.619Z,11.47
2018-01-27T10:26:03.902Z,10.88
2018-01-27T10:28:32.161Z,11.70
2018-01-27T10:31:00.648Z,11.33
2018-01-27T10:33:28.908Z,12.10
2018-01-27T10:35:57.205Z,12.83
2018-01-27T10:38:25.487Z,12.20
2018-01-27T10:40:53.823Z,12.23
2018-01-27T10:43:22.125Z,12.30
2018-01-27T10:45:50.407Z,13.98
2018-01-27T10:48:18.744Z,14.13
2018-01-27T10:50:47.103Z,15.50
2018-01-27T10:53:16.032Z,13.13
2018-01-27T10:55:44.346Z,13.80
2018-01-27T10:58:13.192Z,14.27
2018-01-27T11:00:41.518Z,13.07
2018-01-27T11:03:09.865Z,13.82
2018-01-27T11:05:38.141Z,13.93
2018-01-27T11:08:06.506Z,13.50
2018-01-27T11:10:34.786Z,15.37
2018-01-27T11:13:03.111Z,12.47
2018-01-27T11:15:31.383Z,12.80
2018-01-27T11:17:59.695Z,11.73
2018-01-27T11:20:28.019Z,11.80
2018-01-27T11:22:56.344Z,11.60
2018-01-27T11:25:24.618Z,10.43
2018-01-27T11:27:52.922Z,12.20
2018-01-27T11:30:21.224Z,12.20
2018-01-27T11:32:49.507Z,11.83
2018-01-27T11:35:17.823Z,9.07
2018-01-27T11:37:46.952Z,8.63
2018-01-27T11:40:15.475Z,9.75
2018-01-27T11:42:43.781Z,9.37
2018-01-27T11:45:12.135Z,9.98
2018-01-27T11:47:40.407Z,8.30
2018-01-27T11:50:08.853Z,8.30
2018-01-27T11:52:37.100Z,8.93
2018-01-27T11:55:06.494Z,8.80
2018-01-27T11:57:36.478Z,10.13
2018-01-27T12:00:04.919Z,10.23
2018-01-27T12:02:33.247Z,10.27
2018-01-27T12:05:01.650Z,9.70
2018-01-27T12:07:29.938Z,8.37
2018-01-27T12:10:00.152Z,9.70
2018-01-27T12:12:30.775Z,10.00
2018-01-27T12:14:59.062Z,9.70
2018-01-27T12:17:27.415Z,9.07
2018-01-27T12:19:55.729Z,11.80
2018-01-27T12:22:24.806Z,9.50
2018-01-27T12:24:53.175Z,10.03
2018-01-27T12:27:21.452Z,9.15
2018-01-27T12:29:49.796Z,13.20
2018-01-27T12:32:19.065Z,10.48
2018-01-27T12:34:47.330Z,11.80
2018-01-27T12:37:15.676Z,10.82
2018-01-27T12:39:43.938Z,11.30
2018-01-27T12:42:13.540Z,13.70
2018-01-27T12:44:41.816Z,12.60
2018-01-27T12:47:10.327Z,13.60
2018-01-27T12:49:38.719Z,12.53
2018-01-27T12:52:07.062Z,12.10
2018-01-27T12:54:35.360Z,10.60
2018-01-27T12:57:04.296Z,13.93
2018-01-27T12:59:32.593Z,12.13
2018-01-27T13:02:00.872Z,11.33
2018-01-27T13:04:29.192Z,12.17
2018-01-27T13:06:57.512Z,12.63
2018-01-27T13:09:25.830Z,11.90
2018-01-27T13:11:55.200Z,10.27
2018-01-27T13:14:23.495Z,10.97
2018-01-27T13:16:51.787Z,12.10
2018-01-27T13:19:20.074Z,11.60
2018-01-27T13:21:48.371Z,12.40
2018-01-27T13:24:16.709Z,12.90
2018-01-27T13:26:44.976Z,12.77
2018-01-27T13:29:13.361Z,12.30
2018-01-27T13:31:41.639Z,13.67
2018-01-27T13:34:09.979Z,13.47
2018-01-27T13:36:38.390Z,13.20
2018-01-27T13:39:06.795Z,13.90
2018-01-27T13:41:35.120Z,16.17
2018-01-27T13:44:03.394Z,14.17
2018-01-27T13:46:31.709Z,11.77
2018-01-27T13:48:59.976Z,10.60
2018-01-27T13:51:28.291Z,11.63
2018-01-27T13:53:56.582Z,10.90
2018-01-27T13:56:24.894Z,12.10
2018-01-27T13:58:53.219Z,13.60
2018-01-27T14:01:22.095Z,11.95
2018-01-27T14:03:52.983Z,12.73
2018-01-27T14:06:21.386Z,13.40
2018-01-27T14:08:49.816Z,11.00
2018-01-27T14:11:18.115Z,12.68
2018-01-27T14:13:46.455Z,13.70
2018-01-27T14:16:14.779Z,14.20
2018-01-27T14:18:43.059Z,11.57
2018-01-27T14:21:11.375Z,13.83
2018-01-27T14:23:39.649Z,14.80
2018-01-27T14:26:08.029Z,16.20
2018-01-27T14:28:36.400Z,12.80
2018-01-27T14:31:04.699Z,14.20
2018-01-27T14:33:32.985Z,13.30
2018-01-27T14:36:01.280Z,13.07
2018-01-27T14:38:29.663Z,13.70
2018-01-27T14:40:58.863Z,14.10
2018-01-27T14:43:27.161Z,13.87
2018-01-27T14:45:55.470Z,14.73
2018-01-27T14:48:23.759Z,14.33
2018-01-27T14:50:52.460Z,15.43
2018-01-27T14:53:20.825Z,14.53
2018-01-27T14:55:49.071Z,14.00
2018-01-27T14:58:17.395Z,15.05
2018-01-27T15:00:45.712Z,14.93
2018-01-27T15:03:14.059Z,14.73
2018-01-27T15:05:42.397Z,17.87
2018-01-27T15:08:10.798Z,15.10
2018-01-27T15:10:39.271Z,14.00
2018-01-27T15:13:08.364Z,16.50
2018-01-27T15:15:36.680Z,14.07
2018-01-27T15:18:04.995Z,15.20
2018-01-27T15:20:33.323Z,15.63
2018-01-27T15:23:01.881Z,13.50
2018-01-27T15:25:30.180Z,15.80
2018-01-27T15:27:58.534Z,13.80
2018-01-27T15:30:26.868Z,13.93
2018-01-27T15:32:55.132Z,15.00
2018-01-27T15:35:23.428Z,14.63
2018-01-27T15:37:51.706Z,14.90
2018-01-27T15:40:20.135Z,12.40
2018-01-27T15:42:48.454Z,15.88
2018-01-27T15:45:16.741Z,14.27
2018-01-27T15:47:45.094Z,13.83
2018-01-27T15:50:20.452Z,14.70
2018-01-27T15:52:48.726Z,17.10
2018-01-27T15:55:17.054Z,16.33
2018-01-27T15:57:45.366Z,15.47
2018-01-27T16:00:13.643Z,15.70
2018-01-27T16:02:41.943Z,14.80
2018-01-27T16:05:11.100Z,15.33
2018-01-27T16:07:39.444Z,15.90
2018-01-27T16:10:07.763Z,13.67
2018-01-27T16:12:36.062Z,17.63
2018-01-27T16:15:04.322Z,15.00
2018-01-27T16:17:32.628Z,16.20
2018-01-27T16:20:00.926Z,16.13
2018-01-27T16:22:29.289Z,15.10
2018-01-27T16:24:58.230Z,17.37
2018-01-27T16:27:26.490Z,18.27
2018-01-27T16:29:54.810Z,16.20
2018-01-27T16:32:23.109Z,15.63
2018-01-27T16:34:51.391Z,18.00
2018-01-27T16:37:19.668Z,16.90
2018-01-27T16:39:47.950Z,16.13
2018-01-27T16:42:16.207Z,14.80
2018-01-27T16:44:44.503Z,17.30
2018-01-27T16:47:12.787Z,17.83
2018-01-27T16:49:41.982Z,16.70
2018-01-27T16:52:10.255Z,15.87
2018-01-27T16:54:38.569Z,15.40
2018-01-27T16:57:06.848Z,15.30
2018-01-27T16:59:35.145Z,14.83
2018-01-27T17:02:03.429Z,14.70
2018-01-27T17:04:31.696Z,14.40
2018-01-27T17:07:00.085Z,15.27
2018-01-27T17:09:28.328Z,13.07
2018-01-27T17:11:56.639Z,12.80
2018-01-27T17:14:24.945Z,12.73
2018-01-27T17:16:53.246Z,12.30
2018-01-27T17:19:21.535Z,11.23
2018-01-27T17:21:49.811Z,11.43
2018-01-27T17:24:18.126Z,11.23
2018-01-27T17:26:46.410Z,11.30
2018-01-27T17:29:14.723Z,10.60
2018-01-27T17:31:42.963Z,10.00
2018-01-27T17:34:11.271Z,9.90
2018-01-27T17:36:39.570Z,11.40
2018-01-27T17:39:07.876Z,10.97
2018-01-27T17:41:36.178Z,10.83
2018-01-27T17:44:04.457Z,9.77
2018-01-27T17:46:32.759Z,9.60
2018-01-27T17:49:01.027Z,10.13
2018-01-27T17:51:29.453Z,11.30
2018-01-27T17:53:57.736Z,11.50
2018-01-27T17:56:26.022Z,12.47
2018-01-27T17:58:54.287Z,12.67
2018-01-27T18:01:22.598Z,13.50
2018-01-27T18:03:50.859Z,13.10
2018-01-27T18:06:19.176Z,13.57
2018-01-27T18:08:47.468Z,13.50
2018-01-27T18:11:16.192Z,14.10
2018-01-27T18:13:44.471Z,14.40
2018-01-27T18:16:13.040Z,14.10
2018-01-27T18:18:41.334Z,14.50
2018-01-27T18:21:09.610Z,15.00
2018-01-27T18:23:37.902Z,14.80
2018-01-27T18:26:06.201Z,14.77
2018-01-27T18:28:34.488Z,15.20
2018-01-27T18:31:02.794Z,14.47
2018-01-27T18:33:31.074Z,15.00
2018-01-27T18:35:59.364Z,16.80
2018-01-27T18:38:27.632Z,16.83
2018-01-27T18:40:55.940Z,16.10
2018-01-27T18:43:24.722Z,14.47
2018-01-27T18:45:53.078Z,15.20
2018-01-27T18:48:21.350Z,14.63
2018-01-27T18:50:49.709Z,16.07
2018-01-27T18:53:17.961Z,15.93
2018-01-27T18:55:46.274Z,14.80
2018-01-27T18:58:14.567Z,15.30
2018-01-27T19:00:42.835Z,16.97
2018-01-27T19:03:11.127Z,14.97
2018-01-27T19:05:39.533Z,16.13
2018-01-27T19:08:07.838Z,15.27
2018-01-27T19:10:36.086Z,15.83
2018-01-27T19:13:04.363Z,17.23
2018-01-27T19:15:32.686Z,15.23
2018-01-27T19:18:01.050Z,15.03
2018-01-27T19:20:29.379Z,20.10
2018-01-27T19:22:57.649Z,17.03
2018-01-27T19:25:25.939Z,15.80
2018-01-27T19:27:54.558Z,14.70
2018-01-27T19:30:22.842Z,17.10
2018-01-27T19:32:51.155Z,17.37
2018-01-27T19:35:19.419Z,16.70
2018-01-27T19:37:47.768Z,15.80
2018-01-27T19:40:16.062Z,15.10
2018-01-27T19:42:44.367Z,16.83
2018-01-27T19:45:12.667Z,16.40
2018-01-27T19:47:41.046Z,14.90
2018-01-27T19:50:09.327Z,15.90
2018-01-27T19:52:37.628Z,14.10
2018-01-27T19:55:05.895Z,15.40
2018-01-27T19:57:34.537Z,14.50
2018-01-27T20:00:02.822Z,15.70
2018-01-27T20:02:31.226Z,16.20
2018-01-27T20:04:59.590Z,16.10
2018-01-27T20:07:27.871Z,14.90
2018-01-27T20:09:56.185Z,11.80
2018-01-27T20:12:24.479Z,13.63
2018-01-27T20:14:52.779Z,12.67
2018-01-27T20:17:21.052Z,12.70
2018-01-27T20:19:49.369Z,14.03
2018-01-27T20:22:17.646Z,14.73
2018-01-27T20:24:45.955Z,15.60
2018-01-27T20:27:14.253Z,13.97
2018-01-27T20:29:42.528Z,14.30
2018-01-27T20:32:10.836Z,18.70
2018-01-27T20:34:39.115Z,16.00
2018-01-27T20:37:07.412Z,14.13
2018-01-27T20:39:35.785Z,13.67
2018-01-27T20:42:04.074Z,13.97
2018-01-27T20:44:32.372Z,13.70
2018-01-27T20:47:00.796Z,13.70
2018-01-27T20:49:29.139Z,16.77
2018-01-27T20:51:57.449Z,13.80
2018-01-27T20:54:25.683Z,14.90
2018-01-27T20:56:54.020Z,11.30
2018-01-27T20:59:22.311Z,13.80
2018-01-27T21:01:50.633Z,13.67
2018-01-27T21:04:18.911Z,14.07
2018-01-27T21:06:47.202Z,13.43
2018-01-27T21:09:15.470Z,15.63
2018-01-27T21:11:43.796Z,13.10
2018-01-27T21:14:12.056Z,12.20
2018-01-27T21:16:40.363Z,12.20
2018-01-27T21:19:08.644Z,12.87
2018-01-27T21:21:36.923Z,12.20
2018-01-27T21:24:05.219Z,12.33
2018-01-27T21:26:33.490Z,12.40
2018-01-27T21:29:01.802Z,12.70
2018-01-27T21:31:30.267Z,13.07
2018-01-27T21:33:58.497Z,12.67
2018-01-27T21:36:26.787Z,12.17
2018-01-27T21:38:55.068Z,14.07
2018-01-27T21:41:23.351Z,11.50
2018-01-27T21:43:51.636Z,11.83
2018-01-27T21:46:19.947Z,11.63
2018-01-27T21:48:48.211Z,10.70
2018-01-27T21:51:16.543Z,9.70
2018-01-27T21:53:44.931Z,11.20
2018-01-27T21:56:13.283Z,11.23
2018-01-27T21:58:41.552Z,12.13
2018-01-27T22:01:09.863Z,11.37
2018-01-27T22:03:38.148Z,11.70
2018-01-27T22:06:06.867Z,11.70
2018-01-27T22:08:35.285Z,13.27
2018-01-27T22:11:03.550Z,12.17
2018-01-27T22:13:31.847Z,10.90
2018-01-27T22:16:00.938Z,11.53
2018-01-27T22:18:29.232Z,11.33
2018-01-27T22:20:57.494Z,12.83
2018-01-27T22:23:25.981Z,14.37
2018-01-27T22:25:54.219Z,13.90
2018-01-27T22:28:22.533Z,14.30
2018-01-27T22:30:50.807Z,16.03
2018-01-27T22:33:19.098Z,14.83
2018-01-27T22:35:47.409Z,14.00
2018-01-27T22:38:15.669Z,16.70
2018-01-27T22:40:43.977Z,16.57
2018-01-27T22:43:12.280Z,16.80
2018-01-27T22:45:40.627Z,14.60
2018-01-27T22:48:08.932Z,14.70
2018-01-27T22:50:37.244Z,13.60
2018-01-27T22:53:05.563Z,13.77
2018-01-27T22:55:33.849Z,15.50
2018-01-27T22:58:02.159Z,17.07
2018-01-27T23:00:30.424Z,12.20
2018-01-27T23:02:58.711Z,15.10
2018-01-27T23:05:26.998Z,15.77
2018-01-27T23:07:55.299Z,12.43
2018-01-27T23:10:23.578Z,13.63
2018-01-27T23:12:51.894Z,14.20
2018-01-27T23:15:20.762Z,14.67
2018-01-27T23:17:49.088Z,14.80
2018-01-27T23:20:18.080Z,15.40
2018-01-27T23:22:46.360Z,14.43
2018-01-27T23:25:14.695Z,14.80
2018-01-27T23:27:42.976Z,16.70
2018-01-27T23:30:11.269Z,11.97
2018-01-27T23:32:39.544Z,13.77
2018-01-27T23:35:07.827Z,13.90
2018-01-27T23:37:36.111Z,12.50
2018-01-27T23:40:06.031Z,13.53
2018-01-27T23:42:34.308Z,13.40
2018-01-27T23:45:02.618Z,13.20
2018-01-27T23:47:30.911Z,15.80
2018-01-27T23:49:59.254Z,14.13
2018-01-27T23:52:27.495Z,13.23
2018-01-27T23:54:55.797Z,13.37
2018-01-27T23:57:24.141Z,13.20
2018-01-27T23:59:52.479Z,12.73
